sensor_id;sensor_type;location;lat;lon;timestamp;P1;durP1;ratioP1;P2;durP2;ratioP2
2972;SDS011;1496;51.404;7.232;2022-12-18T00:02:15;5.37;;;3.73;;
2972;SDS011;1496;51.404;7.232;2022-12-18T00:04:41;5.20;;;4.00;;
2972;SDS011;1496;51.404;7.232;2022-12-18T00:07:06;9.60;;;4.50;;
2972;SDS011;1496;51.404;7.232;2022-12-18T00:09:32;6.17;;;3.80;;
2972;SDS011;1496;51.404;7.232;2022-12-18T00:11:58;8.23;;;3.90;;
2972;SDS011;1496;51.404;7.232;2022-12-18T00:14:23;5.87;;;3.23;;
2972;SDS011;1496;51.404;7.232;2022-12-18T00:16:49;8.50;;;3.90;;
2972;SDS011;1496;51.404;7.232;2022-12-18T00:19:15;6.50;;;4.10;;
2972;SDS011;1496;51.404;7.232;2022-12-18T00:21:41;6.07;;;4.13;;
2972;SDS011;1496;51.404;7.232;2022-12-18T00:24:08;8.70;;;4.57;;
2972;SDS011;1496;51.404;7.232;2022-12-18T00:26:35;6.43;;;3.60;;
2972;SDS011;1496;51.404;7.232;2022-12-18T00:29:12;6.67;;;3.70;;
2972;SDS011;1496;51.404;7.232;2022-12-18T00:31:42;8.07;;;4.60;;
2972;SDS011;1496;51.404;7.232;2022-12-18T00:34:09;6.60;;;3.63;;
2972;SDS011;1496;51.404;7.232;2022-12-18T00:36:38;4.13;;;2.97;;
2972;SDS011;1496;51.404;7.232;2022-12-18T00:39:05;7.13;;;5.20;;
2972;SDS011;1496;51.404;7.232;2022-12-18T00:41:31;7.20;;;4.37;;
2972;SDS011;1496;51.404;7.232;2022-12-18T00:44:16;6.27;;;3.40;;
2972;SDS011;1496;51.404;7.232;2022-12-18T00:46:44;9.23;;;3.60;;
2972;SDS011;1496;51.404;7.232;2022-12-18T00:49:10;8.60;;;4.30;;
2972;SDS011;1496;51.404;7.232;2022-12-18T00:51:36;7.57;;;4.47;;
2972;SDS011;1496;51.404;7.232;2022-12-18T00:54:02;7.63;;;3.87;;
2972;SDS011;1496;51.404;7.232;2022-12-18T00:56:27;11.73;;;4.10;;
2972;SDS011;1496;51.404;7.232;2022-12-18T00:58:53;6.13;;;3.63;;
2972;SDS011;1496;51.404;7.232;2022-12-18T01:01:18;8.47;;;4.13;;
2972;SDS011;1496;51.404;7.232;2022-12-18T01:03:44;10.53;;;4.67;;
2972;SDS011;1496;51.404;7.232;2022-12-18T01:06:14;5.27;;;3.53;;
2972;SDS011;1496;51.404;7.232;2022-12-18T01:08:41;13.03;;;4.20;;
2972;SDS011;1496;51.404;7.232;2022-12-18T01:11:13;6.20;;;3.60;;
2972;SDS011;1496;51.404;7.232;2022-12-18T01:13:40;6.93;;;4.27;;
2972;SDS011;1496;51.404;7.232;2022-12-18T01:16:06;5.10;;;3.33;;
2972;SDS011;1496;51.404;7.232;2022-12-18T01:18:34;9.33;;;4.93;;
2972;SDS011;1496;51.404;7.232;2022-12-18T01:20:59;10.50;;;4.60;;
2972;SDS011;1496;51.404;7.232;2022-12-18T01:23:25;6.73;;;3.87;;
2972;SDS011;1496;51.404;7.232;2022-12-18T01:25:51;7.43;;;3.70;;
2972;SDS011;1496;51.404;7.232;2022-12-18T01:28:16;6.10;;;3.30;;
2972;SDS011;1496;51.404;7.232;2022-12-18T01:30:42;5.27;;;3.47;;
2972;SDS011;1496;51.404;7.232;2022-12-18T01:33:08;8.10;;;4.67;;
2972;SDS011;1496;51.404;7.232;2022-12-18T01:35:39;11.10;;;4.77;;
2972;SDS011;1496;51.404;7.232;2022-12-18T01:38:08;5.63;;;3.70;;
2972;SDS011;1496;51.404;7.232;2022-12-18T01:40:34;7.43;;;4.63;;
2972;SDS011;1496;51.404;7.232;2022-12-18T01:43:00;5.53;;;3.70;;
2972;SDS011;1496;51.404;7.232;2022-12-18T01:45:30;6.57;;;3.43;;
2972;SDS011;1496;51.404;7.232;2022-12-18T01:48:03;6.43;;;3.80;;
2972;SDS011;1496;51.404;7.232;2022-12-18T01:53:13;6.40;;;3.90;;
2972;SDS011;1496;51.404;7.232;2022-12-18T01:55:48;5.27;;;3.40;;
2972;SDS011;1496;51.404;7.232;2022-12-18T01:58:20;6.57;;;3.90;;
2972;SDS011;1496;51.404;7.232;2022-12-18T02:00:51;5.60;;;3.90;;
2972;SDS011;1496;51.404;7.232;2022-12-18T02:03:18;6.17;;;3.20;;
2972;SDS011;1496;51.404;7.232;2022-12-18T02:09:08;7.00;;;3.23;;
2972;SDS011;1496;51.404;7.232;2022-12-18T02:11:59;4.30;;;3.27;;
2972;SDS011;1496;51.404;7.232;2022-12-18T02:17:21;6.83;;;4.00;;
2972;SDS011;1496;51.404;7.232;2022-12-18T02:20:28;7.60;;;3.77;;
2972;SDS011;1496;51.404;7.232;2022-12-18T02:23:00;5.47;;;3.53;;
2972;SDS011;1496;51.404;7.232;2022-12-18T02:28:23;5.30;;;3.47;;
2972;SDS011;1496;51.404;7.232;2022-12-18T02:30:56;6.47;;;4.53;;
2972;SDS011;1496;51.404;7.232;2022-12-18T02:33:27;4.77;;;3.10;;
2972;SDS011;1496;51.404;7.232;2022-12-18T02:35:55;5.53;;;3.10;;
2972;SDS011;1496;51.404;7.232;2022-12-18T02:38:24;7.03;;;4.03;;
2972;SDS011;1496;51.404;7.232;2022-12-18T02:40:51;5.40;;;3.60;;
2972;SDS011;1496;51.404;7.232;2022-12-18T02:43:18;6.50;;;3.70;;
2972;SDS011;1496;51.404;7.232;2022-12-18T02:45:48;6.50;;;3.20;;
2972;SDS011;1496;51.404;7.232;2022-12-18T02:48:22;5.10;;;3.30;;
2972;SDS011;1496;51.404;7.232;2022-12-18T02:51:06;9.77;;;4.10;;
2972;SDS011;1496;51.404;7.232;2022-12-18T02:53:53;5.63;;;3.70;;
2972;SDS011;1496;51.404;7.232;2022-12-18T02:57:02;6.00;;;3.47;;
2972;SDS011;1496;51.404;7.232;2022-12-18T02:59:23;5.73;;;3.30;;
2972;SDS011;1496;51.404;7.232;2022-12-18T03:02:26;4.70;;;2.90;;
2972;SDS011;1496;51.404;7.232;2022-12-18T03:07:34;5.80;;;3.70;;
2972;SDS011;1496;51.404;7.232;2022-12-18T03:10:07;8.10;;;3.87;;
2972;SDS011;1496;51.404;7.232;2022-12-18T03:12:37;9.30;;;3.77;;
2972;SDS011;1496;51.404;7.232;2022-12-18T03:15:17;5.90;;;3.50;;
2972;SDS011;1496;51.404;7.232;2022-12-18T03:17:55;7.23;;;3.67;;
2972;SDS011;1496;51.404;7.232;2022-12-18T03:20:29;7.07;;;3.37;;
2972;SDS011;1496;51.404;7.232;2022-12-18T03:22:59;6.03;;;3.37;;
2972;SDS011;1496;51.404;7.232;2022-12-18T03:25:35;5.73;;;3.70;;
2972;SDS011;1496;51.404;7.232;2022-12-18T03:28:04;6.03;;;4.20;;
2972;SDS011;1496;51.404;7.232;2022-12-18T03:30:35;8.40;;;3.67;;
2972;SDS011;1496;51.404;7.232;2022-12-18T03:36:07;7.53;;;4.27;;
2972;SDS011;1496;51.404;7.232;2022-12-18T03:38:33;4.67;;;3.10;;
2972;SDS011;1496;51.404;7.232;2022-12-18T03:42:03;5.40;;;3.30;;
2972;SDS011;1496;51.404;7.232;2022-12-18T03:47:22;6.90;;;3.50;;
2972;SDS011;1496;51.404;7.232;2022-12-18T03:50:14;5.33;;;3.63;;
2972;SDS011;1496;51.404;7.232;2022-12-18T03:52:49;6.07;;;3.60;;
2972;SDS011;1496;51.404;7.232;2022-12-18T03:55:24;12.73;;;3.90;;
2972;SDS011;1496;51.404;7.232;2022-12-18T03:57:57;5.67;;;3.47;;
2972;SDS011;1496;51.404;7.232;2022-12-18T04:00:28;4.83;;;3.50;;
2972;SDS011;1496;51.404;7.232;2022-12-18T04:03:03;5.20;;;3.23;;
2972;SDS011;1496;51.404;7.232;2022-12-18T04:05:37;6.37;;;3.87;;
2972;SDS011;1496;51.404;7.232;2022-12-18T04:08:05;4.20;;;3.00;;
2972;SDS011;1496;51.404;7.232;2022-12-18T04:10:35;4.10;;;3.00;;
2972;SDS011;1496;51.404;7.232;2022-12-18T04:13:01;5.60;;;3.50;;
2972;SDS011;1496;51.404;7.232;2022-12-18T04:15:28;3.60;;;2.93;;
2972;SDS011;1496;51.404;7.232;2022-12-18T04:17:54;4.50;;;3.00;;
2972;SDS011;1496;51.404;7.232;2022-12-18T04:20:23;4.10;;;2.77;;
2972;SDS011;1496;51.404;7.232;2022-12-18T04:22:49;5.30;;;3.00;;
2972;SDS011;1496;51.404;7.232;2022-12-18T04:25:16;4.20;;;3.23;;
2972;SDS011;1496;51.404;7.232;2022-12-18T04:27:54;4.30;;;2.47;;
2972;SDS011;1496;51.404;7.232;2022-12-18T04:30:19;4.43;;;2.90;;
2972;SDS011;1496;51.404;7.232;2022-12-18T04:32:45;5.90;;;3.83;;
2972;SDS011;1496;51.404;7.232;2022-12-18T04:35:11;3.43;;;2.60;;
2972;SDS011;1496;51.404;7.232;2022-12-18T04:37:38;4.93;;;3.13;;
2972;SDS011;1496;51.404;7.232;2022-12-18T04:40:04;4.07;;;2.63;;
2972;SDS011;1496;51.404;7.232;2022-12-18T04:42:38;3.20;;;2.13;;
2972;SDS011;1496;51.404;7.232;2022-12-18T04:45:05;4.70;;;3.37;;
2972;SDS011;1496;51.404;7.232;2022-12-18T04:47:32;2.77;;;2.20;;
2972;SDS011;1496;51.404;7.232;2022-12-18T04:49:58;3.53;;;2.90;;
2972;SDS011;1496;51.404;7.232;2022-12-18T04:52:24;5.53;;;3.20;;
2972;SDS011;1496;51.404;7.232;2022-12-18T04:54:49;3.77;;;3.03;;
2972;SDS011;1496;51.404;7.232;2022-12-18T04:57:15;4.63;;;2.80;;
2972;SDS011;1496;51.404;7.232;2022-12-18T04:59:42;4.40;;;3.63;;
2972;SDS011;1496;51.404;7.232;2022-12-18T05:02:08;3.77;;;2.40;;
2972;SDS011;1496;51.404;7.232;2022-12-18T05:04:34;3.80;;;2.90;;
2972;SDS011;1496;51.404;7.232;2022-12-18T05:07:00;5.40;;;2.90;;
2972;SDS011;1496;51.404;7.232;2022-12-18T05:09:25;3.50;;;2.90;;
2972;SDS011;1496;51.404;7.232;2022-12-18T05:11:51;3.60;;;2.97;;
2972;SDS011;1496;51.404;7.232;2022-12-18T05:14:16;5.73;;;3.73;;
2972;SDS011;1496;51.404;7.232;2022-12-18T05:16:42;4.40;;;3.17;;
2972;SDS011;1496;51.404;7.232;2022-12-18T05:19:08;5.40;;;2.67;;
2972;SDS011;1496;51.404;7.232;2022-12-18T05:21:33;7.00;;;3.53;;
2972;SDS011;1496;51.404;7.232;2022-12-18T05:23:59;4.07;;;2.80;;
2972;SDS011;1496;51.404;7.232;2022-12-18T05:26:24;4.50;;;3.10;;
2972;SDS011;1496;51.404;7.232;2022-12-18T05:28:50;6.43;;;3.67;;
2972;SDS011;1496;51.404;7.232;2022-12-18T05:31:16;5.60;;;3.20;;
2972;SDS011;1496;51.404;7.232;2022-12-18T05:33:42;6.07;;;4.47;;
2972;SDS011;1496;51.404;7.232;2022-12-18T05:36:07;5.80;;;3.90;;
2972;SDS011;1496;51.404;7.232;2022-12-18T05:38:34;5.73;;;2.80;;
2972;SDS011;1496;51.404;7.232;2022-12-18T05:41:02;5.00;;;3.70;;
2972;SDS011;1496;51.404;7.232;2022-12-18T05:43:28;4.80;;;3.23;;
2972;SDS011;1496;51.404;7.232;2022-12-18T05:45:54;3.70;;;3.20;;
2972;SDS011;1496;51.404;7.232;2022-12-18T05:48:20;6.13;;;3.60;;
2972;SDS011;1496;51.404;7.232;2022-12-18T05:50:46;8.00;;;4.30;;
2972;SDS011;1496;51.404;7.232;2022-12-18T05:53:14;5.00;;;3.67;;
2972;SDS011;1496;51.404;7.232;2022-12-18T05:55:42;7.23;;;2.80;;
2972;SDS011;1496;51.404;7.232;2022-12-18T05:58:09;4.77;;;2.70;;
2972;SDS011;1496;51.404;7.232;2022-12-18T06:00:37;5.60;;;3.60;;
2972;SDS011;1496;51.404;7.232;2022-12-18T06:03:07;5.27;;;3.40;;
2972;SDS011;1496;51.404;7.232;2022-12-18T06:05:37;5.07;;;3.43;;
2972;SDS011;1496;51.404;7.232;2022-12-18T06:08:05;5.53;;;3.63;;
2972;SDS011;1496;51.404;7.232;2022-12-18T06:10:31;4.60;;;2.73;;
2972;SDS011;1496;51.404;7.232;2022-12-18T06:12:57;5.70;;;3.63;;
2972;SDS011;1496;51.404;7.232;2022-12-18T06:15:23;3.70;;;2.80;;
2972;SDS011;1496;51.404;7.232;2022-12-18T06:17:49;8.20;;;3.97;;
2972;SDS011;1496;51.404;7.232;2022-12-18T06:20:15;8.00;;;3.73;;
2972;SDS011;1496;51.404;7.232;2022-12-18T06:22:41;8.10;;;4.43;;
2972;SDS011;1496;51.404;7.232;2022-12-18T06:25:07;5.83;;;3.67;;
2972;SDS011;1496;51.404;7.232;2022-12-18T06:27:33;6.93;;;3.63;;
2972;SDS011;1496;51.404;7.232;2022-12-18T06:29:59;6.67;;;3.70;;
2972;SDS011;1496;51.404;7.232;2022-12-18T06:32:25;8.73;;;4.03;;
2972;SDS011;1496;51.404;7.232;2022-12-18T06:34:51;7.23;;;4.10;;
2972;SDS011;1496;51.404;7.232;2022-12-18T06:37:17;5.53;;;3.67;;
2972;SDS011;1496;51.404;7.232;2022-12-18T06:39:42;6.90;;;4.27;;
2972;SDS011;1496;51.404;7.232;2022-12-18T06:42:08;6.00;;;4.10;;
2972;SDS011;1496;51.404;7.232;2022-12-18T06:44:34;11.57;;;4.00;;
2972;SDS011;1496;51.404;7.232;2022-12-18T06:46:59;7.60;;;4.33;;
2972;SDS011;1496;51.404;7.232;2022-12-18T06:49:25;6.53;;;4.37;;
2972;SDS011;1496;51.404;7.232;2022-12-18T06:51:50;5.53;;;3.37;;
2972;SDS011;1496;51.404;7.232;2022-12-18T06:54:20;5.77;;;3.27;;
2972;SDS011;1496;51.404;7.232;2022-12-18T06:56:45;6.13;;;3.60;;
2972;SDS011;1496;51.404;7.232;2022-12-18T06:59:12;7.27;;;4.60;;
2972;SDS011;1496;51.404;7.232;2022-12-18T07:01:38;5.87;;;4.47;;
2972;SDS011;1496;51.404;7.232;2022-12-18T07:04:10;5.50;;;3.67;;
2972;SDS011;1496;51.404;7.232;2022-12-18T07:06:35;6.87;;;4.63;;
2972;SDS011;1496;51.404;7.232;2022-12-18T07:09:01;10.37;;;4.40;;
2972;SDS011;1496;51.404;7.232;2022-12-18T07:11:27;8.17;;;4.60;;
2972;SDS011;1496;51.404;7.232;2022-12-18T07:13:52;6.67;;;4.70;;
2972;SDS011;1496;51.404;7.232;2022-12-18T07:16:19;7.57;;;4.93;;
2972;SDS011;1496;51.404;7.232;2022-12-18T07:18:46;7.30;;;4.80;;
2972;SDS011;1496;51.404;7.232;2022-12-18T07:21:19;8.03;;;4.60;;
2972;SDS011;1496;51.404;7.232;2022-12-18T07:23:45;5.20;;;3.57;;
2972;SDS011;1496;51.404;7.232;2022-12-18T07:26:13;5.57;;;4.10;;
2972;SDS011;1496;51.404;7.232;2022-12-18T07:28:40;13.10;;;6.57;;
2972;SDS011;1496;51.404;7.232;2022-12-18T07:31:07;8.80;;;4.40;;
2972;SDS011;1496;51.404;7.232;2022-12-18T07:33:35;13.70;;;6.80;;
2972;SDS011;1496;51.404;7.232;2022-12-18T07:36:04;6.63;;;4.27;;
2972;SDS011;1496;51.404;7.232;2022-12-18T07:38:31;6.63;;;4.07;;
2972;SDS011;1496;51.404;7.232;2022-12-18T07:41:05;7.73;;;4.17;;
2972;SDS011;1496;51.404;7.232;2022-12-18T07:43:32;6.57;;;4.20;;
2972;SDS011;1496;51.404;7.232;2022-12-18T07:45:59;10.03;;;5.30;;
2972;SDS011;1496;51.404;7.232;2022-12-18T07:48:24;9.03;;;4.93;;
2972;SDS011;1496;51.404;7.232;2022-12-18T07:50:50;7.77;;;5.27;;
2972;SDS011;1496;51.404;7.232;2022-12-18T07:53:16;7.10;;;3.97;;
2972;SDS011;1496;51.404;7.232;2022-12-18T07:55:42;6.60;;;3.90;;
2972;SDS011;1496;51.404;7.232;2022-12-18T07:58:08;6.03;;;3.83;;
2972;SDS011;1496;51.404;7.232;2022-12-18T08:00:34;4.33;;;3.27;;
2972;SDS011;1496;51.404;7.232;2022-12-18T08:02:59;5.27;;;3.83;;
2972;SDS011;1496;51.404;7.232;2022-12-18T08:05:25;5.50;;;4.00;;
2972;SDS011;1496;51.404;7.232;2022-12-18T08:07:52;5.40;;;3.33;;
2972;SDS011;1496;51.404;7.232;2022-12-18T08:10:19;6.40;;;3.53;;
2972;SDS011;1496;51.404;7.232;2022-12-18T08:12:44;5.63;;;3.80;;
2972;SDS011;1496;51.404;7.232;2022-12-18T08:15:10;5.50;;;3.60;;
2972;SDS011;1496;51.404;7.232;2022-12-18T08:17:36;5.47;;;3.17;;
2972;SDS011;1496;51.404;7.232;2022-12-18T08:20:05;9.13;;;3.00;;
2972;SDS011;1496;51.404;7.232;2022-12-18T08:22:33;6.53;;;3.30;;
2972;SDS011;1496;51.404;7.232;2022-12-18T08:25:02;6.13;;;3.60;;
2972;SDS011;1496;51.404;7.232;2022-12-18T08:27:28;5.73;;;3.37;;
2972;SDS011;1496;51.404;7.232;2022-12-18T08:29:54;6.53;;;4.03;;
2972;SDS011;1496;51.404;7.232;2022-12-18T08:32:20;5.57;;;2.90;;
2972;SDS011;1496;51.404;7.232;2022-12-18T08:34:46;4.63;;;2.87;;
2972;SDS011;1496;51.404;7.232;2022-12-18T08:37:11;6.40;;;3.37;;
2972;SDS011;1496;51.404;7.232;2022-12-18T08:39:37;6.37;;;3.90;;
2972;SDS011;1496;51.404;7.232;2022-12-18T08:42:03;4.50;;;3.37;;
2972;SDS011;1496;51.404;7.232;2022-12-18T08:44:47;5.80;;;3.20;;
2972;SDS011;1496;51.404;7.232;2022-12-18T08:47:13;4.87;;;2.50;;
2972;SDS011;1496;51.404;7.232;2022-12-18T08:49:38;4.23;;;2.70;;
2972;SDS011;1496;51.404;7.232;2022-12-18T08:52:04;5.03;;;2.90;;
2972;SDS011;1496;51.404;7.232;2022-12-18T08:54:30;3.07;;;2.50;;
2972;SDS011;1496;51.404;7.232;2022-12-18T08:56:56;4.70;;;3.10;;
2972;SDS011;1496;51.404;7.232;2022-12-18T08:59:21;7.10;;;3.03;;
2972;SDS011;1496;51.404;7.232;2022-12-18T09:01:48;3.97;;;2.53;;
2972;SDS011;1496;51.404;7.232;2022-12-18T09:04:14;5.53;;;2.67;;
2972;SDS011;1496;51.404;7.232;2022-12-18T09:06:40;2.37;;;2.00;;
2972;SDS011;1496;51.404;7.232;2022-12-18T09:09:06;6.20;;;3.77;;
2972;SDS011;1496;51.404;7.232;2022-12-18T09:11:32;4.50;;;2.93;;
2972;SDS011;1496;51.404;7.232;2022-12-18T09:13:59;5.50;;;3.10;;
2972;SDS011;1496;51.404;7.232;2022-12-18T09:16:26;5.03;;;3.23;;
2972;SDS011;1496;51.404;7.232;2022-12-18T09:18:55;4.30;;;3.57;;
2972;SDS011;1496;51.404;7.232;2022-12-18T09:21:25;15.57;;;5.10;;
2972;SDS011;1496;51.404;7.232;2022-12-18T09:23:58;2.60;;;2.33;;
2972;SDS011;1496;51.404;7.232;2022-12-18T09:26:24;4.90;;;2.50;;
2972;SDS011;1496;51.404;7.232;2022-12-18T09:28:52;4.00;;;2.07;;
2972;SDS011;1496;51.404;7.232;2022-12-18T09:31:18;7.30;;;2.80;;
2972;SDS011;1496;51.404;7.232;2022-12-18T09:33:46;4.20;;;2.37;;
2972;SDS011;1496;51.404;7.232;2022-12-18T09:36:13;5.27;;;2.10;;
2972;SDS011;1496;51.404;7.232;2022-12-18T09:38:40;5.20;;;2.90;;
2972;SDS011;1496;51.404;7.232;2022-12-18T09:41:16;4.10;;;2.00;;
2972;SDS011;1496;51.404;7.232;2022-12-18T09:43:50;5.63;;;2.83;;
2972;SDS011;1496;51.404;7.232;2022-12-18T09:46:31;4.97;;;2.30;;
2972;SDS011;1496;51.404;7.232;2022-12-18T09:49:02;5.17;;;2.00;;
2972;SDS011;1496;51.404;7.232;2022-12-18T09:51:43;4.97;;;2.47;;
2972;SDS011;1496;51.404;7.232;2022-12-18T09:54:23;4.63;;;2.40;;
2972;SDS011;1496;51.404;7.232;2022-12-18T09:56:55;3.90;;;2.60;;
2972;SDS011;1496;51.404;7.232;2022-12-18T09:59:22;5.27;;;3.50;;
2972;SDS011;1496;51.404;7.232;2022-12-18T10:01:50;4.40;;;2.93;;
2972;SDS011;1496;51.404;7.232;2022-12-18T10:04:17;7.00;;;3.17;;
2972;SDS011;1496;51.404;7.232;2022-12-18T10:06:54;7.10;;;2.63;;
2972;SDS011;1496;51.404;7.232;2022-12-18T10:09:49;5.73;;;2.97;;
2972;SDS011;1496;51.404;7.232;2022-12-18T10:12:27;5.30;;;2.83;;
2972;SDS011;1496;51.404;7.232;2022-12-18T10:15:05;10.03;;;3.90;;
2972;SDS011;1496;51.404;7.232;2022-12-18T10:17:55;4.60;;;2.73;;
2972;SDS011;1496;51.404;7.232;2022-12-18T10:20:51;5.97;;;3.10;;
2972;SDS011;1496;51.404;7.232;2022-12-18T10:26:10;5.60;;;3.27;;
2972;SDS011;1496;51.404;7.232;2022-12-18T10:28:40;10.73;;;3.00;;
2972;SDS011;1496;51.404;7.232;2022-12-18T10:31:07;5.57;;;2.90;;
2972;SDS011;1496;51.404;7.232;2022-12-18T10:33:42;5.13;;;2.80;;
2972;SDS011;1496;51.404;7.232;2022-12-18T10:36:08;6.10;;;3.10;;
2972;SDS011;1496;51.404;7.232;2022-12-18T10:38:34;7.20;;;2.57;;
2972;SDS011;1496;51.404;7.232;2022-12-18T10:41:01;4.73;;;3.13;;
2972;SDS011;1496;51.404;7.232;2022-12-18T10:43:30;5.20;;;3.60;;
2972;SDS011;1496;51.404;7.232;2022-12-18T10:48:37;4.40;;;3.00;;
2972;SDS011;1496;51.404;7.232;2022-12-18T10:51:21;7.93;;;3.00;;
2972;SDS011;1496;51.404;7.232;2022-12-18T10:53:57;10.00;;;3.80;;
2972;SDS011;1496;51.404;7.232;2022-12-18T10:56:26;10.37;;;2.70;;
2972;SDS011;1496;51.404;7.232;2022-12-18T10:58:58;5.93;;;3.30;;
2972;SDS011;1496;51.404;7.232;2022-12-18T11:01:24;8.50;;;4.33;;
2972;SDS011;1496;51.404;7.232;2022-12-18T11:06:20;7.33;;;4.10;;
2972;SDS011;1496;51.404;7.232;2022-12-18T11:09:19;6.60;;;4.10;;
2972;SDS011;1496;51.404;7.232;2022-12-18T11:11:48;5.43;;;3.63;;
2972;SDS011;1496;51.404;7.232;2022-12-18T11:15:02;6.17;;;3.80;;
2972;SDS011;1496;51.404;7.232;2022-12-18T11:17:16;5.40;;;2.60;;
2972;SDS011;1496;51.404;7.232;2022-12-18T11:19:44;10.07;;;3.93;;
2972;SDS011;1496;51.404;7.232;2022-12-18T11:22:23;8.80;;;4.97;;
2972;SDS011;1496;51.404;7.232;2022-12-18T11:27:47;6.60;;;3.13;;
2972;SDS011;1496;51.404;7.232;2022-12-18T11:30:23;6.70;;;2.83;;
2972;SDS011;1496;51.404;7.232;2022-12-18T11:32:55;6.27;;;3.93;;
2972;SDS011;1496;51.404;7.232;2022-12-18T11:38:40;7.70;;;3.07;;
2972;SDS011;1496;51.404;7.232;2022-12-18T11:44:00;11.07;;;5.90;;
2972;SDS011;1496;51.404;7.232;2022-12-18T11:46:32;13.23;;;8.90;;
2972;SDS011;1496;51.404;7.232;2022-12-18T11:49:06;10.53;;;4.10;;
2972;SDS011;1496;51.404;7.232;2022-12-18T11:51:41;7.53;;;5.40;;
2972;SDS011;1496;51.404;7.232;2022-12-18T11:54:14;8.43;;;3.90;;
2972;SDS011;1496;51.404;7.232;2022-12-18T11:56:48;7.40;;;4.00;;
2972;SDS011;1496;51.404;7.232;2022-12-18T12:10:46;5.80;;;3.30;;
2972;SDS011;1496;51.404;7.232;2022-12-18T12:21:22;5.87;;;4.30;;
2972;SDS011;1496;51.404;7.232;2022-12-18T12:29:37;5.20;;;3.23;;
2972;SDS011;1496;51.404;7.232;2022-12-18T12:32:33;7.87;;;4.13;;
2972;SDS011;1496;51.404;7.232;2022-12-18T12:40:33;8.73;;;4.37;;
2972;SDS011;1496;51.404;7.232;2022-12-18T12:43:07;9.13;;;4.30;;
2972;SDS011;1496;51.404;7.232;2022-12-18T12:53:50;6.93;;;4.30;;
2972;SDS011;1496;51.404;7.232;2022-12-18T12:56:19;6.97;;;4.43;;
2972;SDS011;1496;51.404;7.232;2022-12-18T12:58:58;6.27;;;4.10;;
2972;SDS011;1496;51.404;7.232;2022-12-18T13:07:05;12.03;;;4.70;;
2972;SDS011;1496;51.404;7.232;2022-12-18T13:23:23;8.50;;;5.60;;
2972;SDS011;1496;51.404;7.232;2022-12-18T13:25:53;7.90;;;5.00;;
2972;SDS011;1496;51.404;7.232;2022-12-18T13:30:58;11.23;;;6.13;;
2972;SDS011;1496;51.404;7.232;2022-12-18T13:36:02;11.47;;;6.13;;
2972;SDS011;1496;51.404;7.232;2022-12-18T13:43:50;13.70;;;7.60;;
2972;SDS011;1496;51.404;7.232;2022-12-18T13:51:42;11.17;;;6.60;;
2972;SDS011;1496;51.404;7.232;2022-12-18T13:54:18;10.50;;;7.20;;
2972;SDS011;1496;51.404;7.232;2022-12-18T13:56:47;11.87;;;7.10;;
2972;SDS011;1496;51.404;7.232;2022-12-18T13:59:15;10.93;;;6.40;;
2972;SDS011;1496;51.404;7.232;2022-12-18T14:01:44;12.10;;;6.87;;
2972;SDS011;1496;51.404;7.232;2022-12-18T14:04:22;11.37;;;6.50;;
2972;SDS011;1496;51.404;7.232;2022-12-18T14:06:54;11.77;;;7.00;;
2972;SDS011;1496;51.404;7.232;2022-12-18T14:09:26;11.33;;;7.00;;
2972;SDS011;1496;51.404;7.232;2022-12-18T14:11:55;20.17;;;7.30;;
2972;SDS011;1496;51.404;7.232;2022-12-18T14:14:44;12.50;;;6.90;;
2972;SDS011;1496;51.404;7.232;2022-12-18T14:17:12;12.13;;;7.37;;
2972;SDS011;1496;51.404;7.232;2022-12-18T14:19:43;17.13;;;8.73;;
2972;SDS011;1496;51.404;7.232;2022-12-18T14:22:15;10.93;;;6.60;;
2972;SDS011;1496;51.404;7.232;2022-12-18T14:24:43;14.20;;;7.33;;
2972;SDS011;1496;51.404;7.232;2022-12-18T14:27:23;9.83;;;7.60;;
2972;SDS011;1496;51.404;7.232;2022-12-18T14:29:50;13.67;;;7.93;;
2972;SDS011;1496;51.404;7.232;2022-12-18T14:32:17;14.93;;;6.97;;
2972;SDS011;1496;51.404;7.232;2022-12-18T14:34:48;15.00;;;8.03;;
2972;SDS011;1496;51.404;7.232;2022-12-18T14:37:21;14.93;;;8.17;;
2972;SDS011;1496;51.404;7.232;2022-12-18T14:39:53;10.77;;;6.77;;
2972;SDS011;1496;51.404;7.232;2022-12-18T14:42:23;13.60;;;7.23;;
2972;SDS011;1496;51.404;7.232;2022-12-18T14:45:31;13.30;;;8.20;;
2972;SDS011;1496;51.404;7.232;2022-12-18T14:47:58;13.20;;;7.57;;
2972;SDS011;1496;51.404;7.232;2022-12-18T14:50:24;12.93;;;8.20;;
2972;SDS011;1496;51.404;7.232;2022-12-18T14:52:51;13.33;;;7.20;;
2972;SDS011;1496;51.404;7.232;2022-12-18T14:55:18;14.40;;;8.00;;
2972;SDS011;1496;51.404;7.232;2022-12-18T14:57:45;13.23;;;8.13;;
2972;SDS011;1496;51.404;7.232;2022-12-18T15:00:16;14.00;;;8.57;;
2972;SDS011;1496;51.404;7.232;2022-12-18T15:02:48;15.20;;;9.50;;
2972;SDS011;1496;51.404;7.232;2022-12-18T15:05:23;13.87;;;8.20;;
2972;SDS011;1496;51.404;7.232;2022-12-18T15:07:55;13.67;;;7.77;;
2972;SDS011;1496;51.404;7.232;2022-12-18T15:10:23;15.87;;;8.57;;
2972;SDS011;1496;51.404;7.232;2022-12-18T15:20:48;14.43;;;8.50;;
2972;SDS011;1496;51.404;7.232;2022-12-18T15:23:16;20.83;;;8.07;;
2972;SDS011;1496;51.404;7.232;2022-12-18T15:25:43;13.30;;;8.10;;
2972;SDS011;1496;51.404;7.232;2022-12-18T15:28:21;13.70;;;8.93;;
2972;SDS011;1496;51.404;7.232;2022-12-18T15:31:04;18.93;;;9.10;;
2972;SDS011;1496;51.404;7.232;2022-12-18T15:33:43;15.20;;;8.70;;
2972;SDS011;1496;51.404;7.232;2022-12-18T15:36:25;17.50;;;9.87;;
2972;SDS011;1496;51.404;7.232;2022-12-18T15:38:51;15.63;;;9.57;;
2972;SDS011;1496;51.404;7.232;2022-12-18T15:41:19;16.33;;;10.37;;
2972;SDS011;1496;51.404;7.232;2022-12-18T15:43:46;18.10;;;9.77;;
2972;SDS011;1496;51.404;7.232;2022-12-18T15:46:18;16.37;;;10.77;;
2972;SDS011;1496;51.404;7.232;2022-12-18T15:48:51;17.73;;;9.10;;
2972;SDS011;1496;51.404;7.232;2022-12-18T15:51:31;19.90;;;10.40;;
2972;SDS011;1496;51.404;7.232;2022-12-18T15:54:00;16.07;;;8.80;;
2972;SDS011;1496;51.404;7.232;2022-12-18T15:56:33;16.70;;;10.47;;
2972;SDS011;1496;51.404;7.232;2022-12-18T15:59:19;20.33;;;12.00;;
2972;SDS011;1496;51.404;7.232;2022-12-18T16:01:46;15.77;;;9.57;;
2972;SDS011;1496;51.404;7.232;2022-12-18T16:04:14;20.23;;;11.07;;
2972;SDS011;1496;51.404;7.232;2022-12-18T16:06:42;18.67;;;10.80;;
2972;SDS011;1496;51.404;7.232;2022-12-18T16:09:08;19.03;;;11.23;;
2972;SDS011;1496;51.404;7.232;2022-12-18T16:11:35;23.63;;;10.93;;
2972;SDS011;1496;51.404;7.232;2022-12-18T16:14:19;16.90;;;10.90;;
2972;SDS011;1496;51.404;7.232;2022-12-18T16:16:48;18.80;;;11.27;;
2972;SDS011;1496;51.404;7.232;2022-12-18T16:19:16;20.20;;;10.70;;
2972;SDS011;1496;51.404;7.232;2022-12-18T16:21:43;20.47;;;11.67;;
2972;SDS011;1496;51.404;7.232;2022-12-18T16:24:21;19.37;;;11.03;;
2972;SDS011;1496;51.404;7.232;2022-12-18T16:26:51;21.50;;;11.57;;
2972;SDS011;1496;51.404;7.232;2022-12-18T16:29:18;19.40;;;11.23;;
2972;SDS011;1496;51.404;7.232;2022-12-18T16:31:55;23.83;;;11.73;;
2972;SDS011;1496;51.404;7.232;2022-12-18T16:34:29;19.13;;;11.20;;
2972;SDS011;1496;51.404;7.232;2022-12-18T16:37:05;19.47;;;10.80;;
2972;SDS011;1496;51.404;7.232;2022-12-18T16:39:33;14.53;;;9.60;;
2972;SDS011;1496;51.404;7.232;2022-12-18T16:41:59;23.73;;;12.23;;
2972;SDS011;1496;51.404;7.232;2022-12-18T16:44:26;22.70;;;12.70;;
2972;SDS011;1496;51.404;7.232;2022-12-18T16:46:54;21.47;;;13.37;;
2972;SDS011;1496;51.404;7.232;2022-12-18T16:49:27;20.70;;;11.43;;
2972;SDS011;1496;51.404;7.232;2022-12-18T16:51:53;20.33;;;11.60;;
2972;SDS011;1496;51.404;7.232;2022-12-18T16:54:19;20.80;;;13.17;;
2972;SDS011;1496;51.404;7.232;2022-12-18T16:56:54;22.60;;;14.63;;
2972;SDS011;1496;51.404;7.232;2022-12-18T17:03:25;24.70;;;17.13;;
2972;SDS011;1496;51.404;7.232;2022-12-18T17:06:03;26.73;;;13.87;;
2972;SDS011;1496;51.404;7.232;2022-12-18T17:08:48;26.40;;;14.10;;
2972;SDS011;1496;51.404;7.232;2022-12-18T17:11:29;29.07;;;13.57;;
2972;SDS011;1496;51.404;7.232;2022-12-18T17:13:57;35.83;;;12.90;;
2972;SDS011;1496;51.404;7.232;2022-12-18T17:16:26;24.00;;;13.27;;
2972;SDS011;1496;51.404;7.232;2022-12-18T17:18:52;23.80;;;14.00;;
2972;SDS011;1496;51.404;7.232;2022-12-18T17:21:21;23.77;;;13.03;;
2972;SDS011;1496;51.404;7.232;2022-12-18T17:23:47;23.80;;;12.30;;
2972;SDS011;1496;51.404;7.232;2022-12-18T17:26:13;24.30;;;13.50;;
2972;SDS011;1496;51.404;7.232;2022-12-18T17:28:42;24.87;;;14.10;;
2972;SDS011;1496;51.404;7.232;2022-12-18T17:33:38;23.23;;;13.00;;
2972;SDS011;1496;51.404;7.232;2022-12-18T17:36:05;25.50;;;13.73;;